createdAt,value
2018-07-12T00:01:19.494Z,98425.20
2018-07-12T00:03:45.743Z,98427.41
2018-07-12T00:06:11.975Z,98439.31
2018-07-12T00:08:38.227Z,98436.73
2018-07-12T00:11:04.470Z,98433.77
2018-07-12T00:13:30.730Z,98434.10
2018-07-12T00:15:57.671Z,98442.33
2018-07-12T00:21:14.067Z,98446.48
2018-07-12T00:23:40.327Z,98454.69
2018-07-12T00:26:06.590Z,98450.91
2018-07-12T00:28:32.860Z,98447.22
2018-07-12T00:30:59.103Z,98440.41
2018-07-12T00:33:25.341Z,98439.42
2018-07-12T00:35:51.612Z,98432.70
2018-07-12T00:38:17.855Z,98432.95
2018-07-12T00:40:44.107Z,98426.38
2018-07-12T00:43:10.366Z,98416.80
2018-07-12T00:45:36.624Z,98416.92
2018-07-12T00:48:03.132Z,98430.73
2018-07-12T00:50:29.419Z,98436.22
2018-07-12T00:52:55.654Z,98434.81
2018-07-12T00:55:21.927Z,98434.81
2018-07-12T00:57:48.174Z,98429.88
2018-07-12T01:00:14.426Z,98438.65
2018-07-12T01:02:40.661Z,98442.16
2018-07-12T01:05:06.913Z,98438.71
2018-07-12T01:07:33.154Z,98438.92
2018-07-12T01:09:59.444Z,98440.81
2018-07-12T01:12:25.671Z,98451.55
2018-07-12T01:14:51.939Z,98449.05
2018-07-12T01:17:18.178Z,98447.65
2018-07-12T01:19:44.422Z,98446.27
2018-07-12T01:22:10.667Z,98445.06
2018-07-12T01:24:36.908Z,98441.59
2018-07-12T01:27:03.315Z,98442.11
2018-07-12T01:29:29.566Z,98449.95
2018-07-12T01:31:55.787Z,98450.23
2018-07-12T01:34:22.045Z,98452.75
2018-07-12T01:36:48.273Z,98447.02
2018-07-12T01:39:14.518Z,98441.79
2018-07-12T01:41:40.773Z,98441.73
2018-07-12T01:44:07.139Z,98440.07
2018-07-12T01:46:33.373Z,98434.20
2018-07-12T01:48:59.609Z,98434.84
2018-07-12T01:51:25.870Z,98427.20
2018-07-12T01:53:52.094Z,98424.28
2018-07-12T01:56:18.350Z,98428.75
2018-07-12T01:58:44.574Z,98435.95
2018-07-12T02:01:10.832Z,98442.26
2018-07-12T02:03:37.074Z,98442.74
2018-07-12T02:06:03.339Z,98434.54
2018-07-12T02:08:29.578Z,98443.51
2018-07-12T02:10:55.842Z,98444.77
2018-07-12T02:13:22.058Z,98439.89
2018-07-12T02:15:48.315Z,98439.76
2018-07-12T02:18:14.555Z,98428.63
2018-07-12T02:20:40.810Z,98425.77
2018-07-12T02:23:07.036Z,98430.78
2018-07-12T02:25:33.279Z,98435.09
2018-07-12T02:27:59.503Z,98439.59
2018-07-12T02:30:25.766Z,98431.23
2018-07-12T02:32:52.002Z,98431.87
2018-07-12T02:35:18.264Z,98428.83
2018-07-12T02:37:44.486Z,98423.16
2018-07-12T02:40:10.740Z,98418.53
2018-07-12T02:42:36.983Z,98418.18
2018-07-12T02:45:03.255Z,98423.00
2018-07-12T02:47:29.491Z,98415.33
2018-07-12T02:49:55.779Z,98419.28
2018-07-12T02:52:22.051Z,98423.40
2018-07-12T02:54:48.337Z,98419.28
2018-07-12T02:57:14.607Z,98422.63
2018-07-12T02:59:40.854Z,98427.27
2018-07-12T03:02:07.124Z,98430.35
2018-07-12T03:04:33.385Z,98432.98
2018-07-12T03:06:59.695Z,98427.52
2018-07-12T03:09:26.010Z,98426.28
2018-07-12T03:11:52.622Z,98441.38
2018-07-12T03:14:18.919Z,98434.47
2018-07-12T03:16:45.239Z,98437.42
2018-07-12T03:19:12.334Z,98432.00
2018-07-12T03:21:39.653Z,98437.95
2018-07-12T03:24:06.513Z,98442.03
2018-07-12T03:26:32.822Z,98442.66
2018-07-12T03:28:59.146Z,98441.11
2018-07-12T03:31:25.468Z,98439.42
2018-07-12T03:33:51.747Z,98442.98
2018-07-12T03:36:18.094Z,98442.09
2018-07-12T03:38:44.378Z,98441.67
2018-07-12T03:41:10.724Z,98452.70
2018-07-12T03:43:37.118Z,98453.59
2018-07-12T03:46:03.434Z,98457.28
2018-07-12T03:48:29.774Z,98463.48
2018-07-12T03:50:56.119Z,98462.45
2018-07-12T03:53:22.463Z,98453.09
2018-07-12T03:55:49.417Z,98462.22
2018-07-12T03:58:15.727Z,98458.66
2018-07-12T04:00:42.582Z,98462.06
2018-07-12T04:03:09.457Z,98460.17
2018-07-12T04:05:35.783Z,98455.93
2018-07-12T04:08:02.100Z,98453.48
2018-07-12T04:10:28.442Z,98459.16
2018-07-12T04:12:54.720Z,98463.00
2018-07-12T04:15:21.140Z,98465.64
2018-07-12T04:17:47.442Z,98459.44
2018-07-12T04:20:13.736Z,98457.32
2018-07-12T04:22:39.994Z,98462.14
2018-07-12T04:25:06.285Z,98457.63
2018-07-12T04:27:32.591Z,98469.73
2018-07-12T04:29:59.765Z,98467.89
2018-07-12T04:32:26.085Z,98475.66
2018-07-12T04:34:52.850Z,98471.18
2018-07-12T04:37:19.347Z,98469.24
2018-07-12T04:39:45.921Z,98469.95
2018-07-12T04:42:12.234Z,98472.13
2018-07-12T04:44:38.493Z,98474.52
2018-07-12T04:47:04.803Z,98476.61
2018-07-12T04:49:31.104Z,98474.19
2018-07-12T04:51:58.269Z,98471.72
2018-07-12T04:54:24.846Z,98473.34
2018-07-12T04:56:51.578Z,98467.88
2018-07-12T04:59:18.768Z,98469.27
2018-07-12T05:01:45.492Z,98465.41
2018-07-12T05:04:11.787Z,98464.66
2018-07-12T05:06:39.045Z,98463.66
2018-07-12T05:09:06.570Z,98465.38
2018-07-12T05:11:32.920Z,98464.02
2018-07-12T05:13:59.236Z,98473.10
2018-07-12T05:16:25.525Z,98480.45
2018-07-12T05:18:51.843Z,98475.79
2018-07-12T05:21:18.140Z,98494.06
2018-07-12T05:23:44.561Z,98484.41
2018-07-12T05:26:10.871Z,98484.28
2018-07-12T05:28:37.163Z,98477.58
2018-07-12T05:31:03.502Z,98485.17
2018-07-12T05:33:29.809Z,98490.13
2018-07-12T05:35:57.238Z,98491.78
2018-07-12T05:38:24.534Z,98488.61
2018-07-12T05:40:51.898Z,98487.98
2018-07-12T05:43:19.306Z,98486.86
2018-07-12T05:45:46.655Z,98482.00
2018-07-12T05:48:14.210Z,98489.57
2018-07-12T05:50:45.507Z,98491.19
2018-07-12T05:53:12.882Z,98491.08
2018-07-12T05:55:40.205Z,98489.38
2018-07-12T05:58:07.590Z,98488.89
2018-07-12T06:00:34.935Z,98491.95
2018-07-12T06:03:02.328Z,98484.30
2018-07-12T06:05:29.730Z,98484.58
2018-07-12T06:07:57.090Z,98491.34
2018-07-12T06:10:24.595Z,98489.74
2018-07-12T06:12:51.940Z,98500.74
2018-07-12T06:15:26.067Z,98497.95
2018-07-12T06:17:53.403Z,98495.61
2018-07-12T06:20:20.727Z,98493.70
2018-07-12T06:22:48.082Z,98492.93
2018-07-12T06:25:15.418Z,98499.75
2018-07-12T06:27:42.783Z,98487.19
2018-07-12T06:30:10.105Z,98486.30
2018-07-12T06:32:38.098Z,98487.94
2018-07-12T06:35:05.422Z,98481.70
2018-07-12T06:37:32.806Z,98485.55
2018-07-12T06:40:00.144Z,98488.64
2018-07-12T06:42:27.492Z,98475.30
2018-07-12T06:44:54.809Z,98479.33
2018-07-12T06:47:22.736Z,98480.27
2018-07-12T06:49:50.895Z,98476.96
2018-07-12T06:52:18.265Z,98481.98
2018-07-12T06:54:45.865Z,98478.00
2018-07-12T06:57:13.927Z,98474.38
2018-07-12T06:59:41.262Z,98474.49
2018-07-12T07:02:09.254Z,98467.69
2018-07-12T07:04:36.575Z,98478.55
2018-07-12T07:07:04.033Z,98473.52
2018-07-12T07:09:31.345Z,98469.95
2018-07-12T07:11:58.729Z,98473.69
2018-07-12T07:14:26.145Z,98478.15
2018-07-12T07:16:53.521Z,98482.23
2018-07-12T07:19:20.861Z,98482.75
2018-07-12T07:21:48.226Z,98490.72
2018-07-12T07:24:15.604Z,98496.62
2018-07-12T07:26:42.898Z,98477.78
2018-07-12T07:29:10.256Z,98480.66
2018-07-12T07:31:37.631Z,98496.42
2018-07-12T07:34:05.083Z,98496.30
2018-07-12T07:36:32.395Z,98490.07
2018-07-12T07:38:59.707Z,98489.01
2018-07-12T07:41:27.038Z,98486.11
2018-07-12T07:43:54.471Z,98488.84
2018-07-12T07:46:22.186Z,98466.05
2018-07-12T07:48:49.545Z,98468.13
2018-07-12T07:51:17.556Z,98464.33
2018-07-12T07:53:44.935Z,98471.92
2018-07-12T07:56:13.287Z,98478.41
2018-07-12T07:58:41.265Z,98467.25
2018-07-12T08:01:08.631Z,98477.20
2018-07-12T08:03:36.005Z,98478.72
2018-07-12T08:06:03.347Z,98484.66
2018-07-12T08:08:31.670Z,98487.53
2018-07-12T08:10:59.044Z,98485.42
2018-07-12T08:13:26.418Z,98488.94
2018-07-12T08:15:53.708Z,98489.42
2018-07-12T08:18:21.080Z,98488.26
2018-07-12T08:20:48.439Z,98491.70
2018-07-12T08:23:15.841Z,98493.03
2018-07-12T08:25:43.185Z,98486.66
2018-07-12T08:28:23.546Z,98484.30
2018-07-12T08:30:51.068Z,98483.11
2018-07-12T08:33:18.540Z,98479.61
2018-07-12T08:35:45.850Z,98486.12
2018-07-12T08:38:13.329Z,98484.13
2018-07-12T08:40:40.741Z,98484.27
2018-07-12T08:43:08.044Z,98486.70
2018-07-12T08:45:35.381Z,98480.83
2018-07-12T08:48:02.737Z,98491.38
2018-07-12T08:50:30.185Z,98488.34
2018-07-12T08:52:57.661Z,98487.98
2018-07-12T08:55:25.632Z,98490.15
2018-07-12T08:57:52.952Z,98491.92
2018-07-12T09:00:20.344Z,98486.66
2018-07-12T09:02:47.790Z,98490.25
2018-07-12T09:05:15.167Z,98487.73
2018-07-12T09:07:43.412Z,98485.29
2018-07-12T09:10:10.767Z,98475.89
2018-07-12T09:12:38.110Z,98483.69
2018-07-12T09:15:05.526Z,98487.58
2018-07-12T09:17:32.912Z,98488.94
2018-07-12T09:20:00.287Z,98488.52
2018-07-12T09:22:27.665Z,98493.63
2018-07-12T09:24:54.994Z,98487.94
2018-07-12T09:27:22.321Z,98490.28
2018-07-12T09:29:49.734Z,98492.16
2018-07-12T09:32:17.141Z,98499.87
2018-07-12T09:34:44.551Z,98502.83
2018-07-12T09:37:11.846Z,98499.87
2018-07-12T09:39:39.874Z,98500.06
2018-07-12T09:42:07.518Z,98501.05
2018-07-12T09:44:34.875Z,98500.27
2018-07-12T09:47:02.262Z,98492.45
2018-07-12T09:49:29.675Z,98495.92
2018-07-12T09:51:57.038Z,98491.94
2018-07-12T09:54:24.428Z,98490.28
2018-07-12T09:57:03.142Z,98503.75
2018-07-12T09:59:31.085Z,98500.25
2018-07-12T10:02:03.999Z,98493.56
2018-07-12T10:04:31.333Z,98488.19
2018-07-12T10:07:04.273Z,98496.58
2018-07-12T10:09:37.442Z,98495.36
2018-07-12T10:12:08.980Z,98493.03
2018-07-12T10:14:41.860Z,98496.91
2018-07-12T10:17:16.810Z,98495.02
2018-07-12T10:19:44.223Z,98494.91
2018-07-12T10:22:11.875Z,98498.99
2018-07-12T10:24:39.313Z,98503.91
2018-07-12T10:27:06.727Z,98498.34
2018-07-12T10:29:34.061Z,98501.04
2018-07-12T10:32:01.948Z,98498.81
2018-07-12T10:34:29.352Z,98497.00
2018-07-12T10:36:56.695Z,98500.73
2018-07-12T10:39:24.083Z,98493.50
2018-07-12T10:41:51.493Z,98492.83
2018-07-12T10:44:18.879Z,98495.48
2018-07-12T10:46:46.222Z,98495.11
2018-07-12T10:49:13.507Z,98489.63
2018-07-12T10:51:40.871Z,98491.91
2018-07-12T10:54:08.248Z,98498.73
2018-07-12T10:56:35.610Z,98493.38
2018-07-12T10:59:03.124Z,98485.57
2018-07-12T11:01:30.963Z,98484.59
2018-07-12T11:03:58.249Z,98482.97
2018-07-12T11:06:26.076Z,98478.23
2018-07-12T11:08:54.190Z,98482.80
2018-07-12T11:11:21.566Z,98486.42
2018-07-12T11:13:51.638Z,98483.95
2018-07-12T11:16:19.196Z,98480.58
2018-07-12T11:18:46.530Z,98483.98
2018-07-12T11:21:14.185Z,98478.34
2018-07-12T11:23:48.262Z,98478.42
2018-07-12T11:26:16.206Z,98474.04
2018-07-12T11:28:43.594Z,98485.70
2018-07-12T11:31:10.991Z,98478.50
2018-07-12T11:33:41.713Z,98471.95
2018-07-12T11:36:10.082Z,98464.10
2018-07-12T11:38:38.463Z,98471.20
2018-07-12T11:41:06.399Z,98467.01
2018-07-12T11:43:33.852Z,98466.89
2018-07-12T11:46:03.244Z,98464.94
2018-07-12T11:48:31.064Z,98460.94
2018-07-12T11:50:58.546Z,98459.23
2018-07-12T11:53:26.590Z,98465.48
2018-07-12T11:55:54.021Z,98467.78
2018-07-12T11:58:22.039Z,98467.73
2018-07-12T12:00:50.481Z,98477.42
2018-07-12T12:03:17.988Z,98476.56
2018-07-12T12:05:45.330Z,98480.34
2018-07-12T12:08:13.209Z,98480.59
2018-07-12T12:10:40.681Z,98485.52
2018-07-12T12:13:08.043Z,98473.57
2018-07-12T12:15:35.430Z,98476.03
2018-07-12T12:18:02.774Z,98473.53
2018-07-12T12:20:30.774Z,98487.23
2018-07-12T12:22:58.118Z,98487.03
2018-07-12T12:25:26.206Z,98479.36
2018-07-12T12:27:53.842Z,98483.11
2018-07-12T12:30:21.476Z,98481.23
2018-07-12T12:32:49.497Z,98475.83
2018-07-12T12:35:16.904Z,98478.08
2018-07-12T12:37:44.393Z,98473.77
2018-07-12T12:40:11.827Z,98467.98
2018-07-12T12:42:39.206Z,98477.60
2018-07-12T12:45:06.697Z,98475.23
2018-07-12T12:47:34.310Z,98473.35
2018-07-12T12:50:01.732Z,98475.23
2018-07-12T12:52:29.094Z,98473.74
2018-07-12T12:54:57.124Z,98463.86
2018-07-12T12:57:24.530Z,98470.89
2018-07-12T12:59:51.883Z,98463.19
2018-07-12T13:02:19.276Z,98459.91
2018-07-12T13:04:46.771Z,98464.92
2018-07-12T13:07:14.138Z,98462.92
2018-07-12T13:09:41.676Z,98460.63
2018-07-12T13:12:11.397Z,98461.94
2018-07-12T13:14:38.694Z,98449.17
2018-07-12T13:17:06.411Z,98448.30
2018-07-12T13:19:33.711Z,98450.93
2018-07-12T13:22:01.292Z,98444.27
2018-07-12T13:24:29.294Z,98439.51
2018-07-12T13:26:56.844Z,98442.16
2018-07-12T13:29:24.315Z,98444.81
2018-07-12T13:31:52.304Z,98449.86
2018-07-12T13:34:19.498Z,98449.95
2018-07-12T13:36:46.852Z,98445.59
2018-07-12T13:39:14.177Z,98449.70
2018-07-12T13:41:41.618Z,98454.95
2018-07-12T13:44:16.406Z,98455.57
2018-07-12T13:46:43.893Z,98462.65
2018-07-12T13:49:11.254Z,98462.11
2018-07-12T13:51:38.668Z,98453.29
2018-07-12T13:54:06.519Z,98465.11
2018-07-12T13:56:33.910Z,98464.65
2018-07-12T13:59:01.268Z,98463.86
2018-07-12T14:01:28.602Z,98464.64
2018-07-12T14:03:55.931Z,98465.98
2018-07-12T14:06:23.511Z,98468.39
2018-07-12T14:08:50.842Z,98466.56
2018-07-12T14:11:18.376Z,98466.89
2018-07-12T14:13:46.504Z,98461.12
2018-07-12T14:16:13.827Z,98465.14
2018-07-12T14:18:41.426Z,98463.95
2018-07-12T14:21:09.532Z,98464.08
2018-07-12T14:23:37.569Z,98462.89
2018-07-12T14:26:04.907Z,98465.08
2018-07-12T14:28:32.461Z,98465.67
2018-07-12T14:30:59.867Z,98462.20
2018-07-12T14:33:27.298Z,98464.30
2018-07-12T14:35:54.765Z,98459.33
2018-07-12T14:38:22.154Z,98460.45
2018-07-12T14:40:50.126Z,98456.43
2018-07-12T14:43:18.071Z,98455.31
2018-07-12T14:45:45.426Z,98453.13
2018-07-12T14:48:12.849Z,98450.28
2018-07-12T14:50:40.168Z,98445.40
2018-07-12T14:53:08.174Z,98453.69
2018-07-12T14:55:35.490Z,98449.20
2018-07-12T14:58:02.878Z,98443.83
2018-07-12T15:00:30.209Z,98448.34
2018-07-12T15:02:57.645Z,98462.88
2018-07-12T15:05:25.211Z,98465.09
2018-07-12T15:07:52.775Z,98460.42
2018-07-12T15:10:20.682Z,98460.27
2018-07-12T15:12:48.654Z,98466.17
2018-07-12T15:15:15.988Z,98475.78
2018-07-12T15:17:43.480Z,98477.50
2018-07-12T15:20:10.887Z,98482.15
2018-07-12T15:22:38.294Z,98487.18
2018-07-12T15:25:06.314Z,98487.16
2018-07-12T15:27:33.684Z,98498.17
2018-07-12T15:30:01.004Z,98498.94
2018-07-12T15:32:28.385Z,98500.02
2018-07-12T15:34:56.659Z,98505.13
2018-07-12T15:37:24.216Z,98495.45
2018-07-12T15:39:52.232Z,98495.22
2018-07-12T15:42:20.668Z,98502.47
2018-07-12T15:44:48.606Z,98496.92
2018-07-12T15:47:16.698Z,98508.83
2018-07-12T15:49:44.135Z,98507.13
2018-07-12T15:52:11.425Z,98506.26
2018-07-12T15:54:39.698Z,98505.29
2018-07-12T15:57:07.106Z,98509.12
2018-07-12T15:59:34.500Z,98511.52
2018-07-12T16:02:02.431Z,98508.99
2018-07-12T16:04:29.828Z,98505.84
2018-07-12T16:06:57.851Z,98501.71
2018-07-12T16:09:25.224Z,98503.05
2018-07-12T16:11:52.627Z,98505.72
2018-07-12T16:14:20.517Z,98500.67
2018-07-12T16:16:47.917Z,98504.98
2018-07-12T16:19:15.272Z,98505.58
2018-07-12T16:21:42.681Z,98503.57
2018-07-12T16:24:10.747Z,98505.36
2018-07-12T16:26:38.049Z,98501.93
2018-07-12T16:29:05.566Z,98500.70
2018-07-12T16:31:32.891Z,98506.87
2018-07-12T16:34:01.270Z,98503.64
2018-07-12T16:36:28.642Z,98496.62
2018-07-12T16:38:56.014Z,98508.40
2018-07-12T16:41:23.343Z,98503.35
2018-07-12T16:43:50.714Z,98498.73
2018-07-12T16:46:18.091Z,98498.14
2018-07-12T16:48:45.885Z,98506.50
2018-07-12T16:51:13.225Z,98508.98
2018-07-12T16:53:40.758Z,98509.55
2018-07-12T16:56:08.297Z,98512.00
2018-07-12T16:58:35.886Z,98508.25
2018-07-12T17:01:04.438Z,98507.95
2018-07-12T17:03:32.246Z,98509.22
2018-07-12T17:05:59.668Z,98499.52
2018-07-12T17:08:27.123Z,98505.16
2018-07-12T17:10:54.703Z,98506.87
2018-07-12T17:13:22.070Z,98504.61
2018-07-12T17:15:49.418Z,98507.68
2018-07-12T17:18:16.811Z,98516.64
2018-07-12T17:20:44.166Z,98507.28
2018-07-12T17:23:12.265Z,98510.36
2018-07-12T17:25:40.288Z,98514.66
2018-07-12T17:28:08.689Z,98506.56
2018-07-12T17:30:36.006Z,98512.77
2018-07-12T17:33:03.528Z,98507.17
2018-07-12T17:35:31.125Z,98505.64
2018-07-12T17:37:58.482Z,98508.52
2018-07-12T17:40:25.868Z,98509.30
2018-07-12T17:42:53.255Z,98515.61
2018-07-12T17:45:21.416Z,98510.85
2018-07-12T17:47:48.813Z,98510.48
2018-07-12T17:50:16.212Z,98520.69
2018-07-12T17:52:43.487Z,98516.80
2018-07-12T17:55:10.873Z,98523.50
2018-07-12T17:57:38.182Z,98523.63
2018-07-12T18:00:06.221Z,98527.94
2018-07-12T18:02:33.915Z,98525.65
2018-07-12T18:05:01.821Z,98526.62
2018-07-12T18:07:29.378Z,98524.57
2018-07-12T18:09:57.716Z,98529.84
2018-07-12T18:12:25.444Z,98530.42
2018-07-12T18:14:53.396Z,98528.67
2018-07-12T18:17:21.251Z,98524.70
2018-07-12T18:19:49.239Z,98530.98
2018-07-12T18:22:16.958Z,98531.55
2018-07-12T18:24:44.552Z,98536.66
2018-07-12T18:27:12.076Z,98533.12
2018-07-12T18:29:39.500Z,98540.45
2018-07-12T18:32:07.616Z,98549.20
2018-07-12T18:34:35.244Z,98543.10
2018-07-12T18:37:03.419Z,98548.63
2018-07-12T18:39:30.887Z,98551.94
2018-07-12T18:41:59.191Z,98552.98
2018-07-12T18:44:27.222Z,98556.03
2018-07-12T18:46:55.016Z,98557.53
2018-07-12T18:49:22.491Z,98559.40
2018-07-12T18:51:50.370Z,98560.73
2018-07-12T18:54:17.810Z,98564.35
2018-07-12T18:56:47.847Z,98565.66
2018-07-12T18:59:17.565Z,98570.13
2018-07-12T19:01:45.074Z,98572.12
2018-07-12T19:04:13.263Z,98578.89
2018-07-12T19:06:41.189Z,98577.91
2018-07-12T19:09:09.410Z,98582.28
2018-07-12T19:11:36.861Z,98588.18
2018-07-12T19:14:04.333Z,98591.48
2018-07-12T19:16:31.743Z,98590.30
2018-07-12T19:18:59.180Z,98598.00
2018-07-12T19:21:26.839Z,98601.48
2018-07-12T19:23:54.322Z,98599.53
2018-07-12T19:26:48.573Z,98596.05
2018-07-12T19:29:15.962Z,98604.05
2018-07-12T19:31:43.436Z,98606.14
2018-07-12T19:34:10.877Z,98604.91
2018-07-12T19:36:38.888Z,98612.61
2018-07-12T19:39:07.936Z,98617.07
2018-07-12T19:41:36.261Z,98612.38
2018-07-12T19:44:03.699Z,98613.88
2018-07-12T19:46:31.955Z,98618.39
2018-07-12T19:48:59.466Z,98620.81
2018-07-12T19:51:26.859Z,98629.36
2018-07-12T19:53:54.219Z,98628.80
2018-07-12T19:56:21.613Z,98635.63
2018-07-12T19:58:49.172Z,98628.30
2018-07-12T20:01:17.165Z,98641.16
2018-07-12T20:03:44.661Z,98643.75
2018-07-12T20:06:12.046Z,98650.55
2018-07-12T20:08:39.417Z,98650.81
2018-07-12T20:11:06.778Z,98659.75
2018-07-12T20:13:34.180Z,98658.00
2018-07-12T20:16:01.475Z,98663.88
2018-07-12T20:18:28.723Z,98662.72
2018-07-12T20:20:56.006Z,98662.33
2018-07-12T20:23:23.235Z,98663.02
2018-07-12T20:25:50.484Z,98663.97
2018-07-12T20:28:17.748Z,98663.02
2018-07-12T20:30:45.019Z,98669.59
2018-07-12T20:33:12.264Z,98674.22
2018-07-12T20:35:39.550Z,98677.56
2018-07-12T20:38:06.838Z,98676.79
2018-07-12T20:40:34.119Z,98667.31
2018-07-12T20:43:01.448Z,98672.24
2018-07-12T20:45:28.796Z,98676.78
2018-07-12T20:47:56.027Z,98674.37
2018-07-12T20:50:23.294Z,98681.70
2018-07-12T20:52:50.922Z,98681.16
2018-07-12T20:55:18.215Z,98674.11
2018-07-12T20:57:45.426Z,98679.68
2018-07-12T21:00:12.685Z,98673.48
2018-07-12T21:02:39.990Z,98680.59
2018-07-12T21:05:07.265Z,98684.11
2018-07-12T21:07:34.526Z,98686.52
2018-07-12T21:10:01.726Z,98692.70
2018-07-12T21:12:28.979Z,98692.22
2018-07-12T21:14:56.231Z,98697.52
2018-07-12T21:17:23.485Z,98696.71
2018-07-12T21:19:50.698Z,98694.99
2018-07-12T21:22:17.966Z,98692.89
2018-07-12T21:24:45.185Z,98691.31
2018-07-12T21:27:12.462Z,98700.89
2018-07-12T21:29:39.735Z,98698.36
2018-07-12T21:32:07.017Z,98695.02
2018-07-12T21:34:34.269Z,98700.04
2018-07-12T21:37:01.543Z,98700.81
2018-07-12T21:39:28.780Z,98695.20
2018-07-12T21:41:56.031Z,98700.05
2018-07-12T21:44:23.324Z,98704.73
2018-07-12T21:46:50.577Z,98702.84
2018-07-12T21:49:17.828Z,98701.77
2018-07-12T21:51:45.195Z,98701.84
2018-07-12T21:54:12.354Z,98705.67
2018-07-12T21:56:39.609Z,98703.48
2018-07-12T21:59:06.835Z,98709.02
2018-07-12T22:01:34.110Z,98712.49
2018-07-12T22:04:01.364Z,98705.97
2018-07-12T22:08:39.425Z,98708.03
2018-07-12T22:11:06.703Z,98709.27
2018-07-12T22:13:35.219Z,98710.42
2018-07-12T22:16:02.529Z,98714.14
2018-07-12T22:18:29.792Z,98719.17
2018-07-12T22:20:57.033Z,98717.48
2018-07-12T22:23:24.341Z,98711.98
2018-07-12T22:25:51.578Z,98709.97
2018-07-12T22:28:18.860Z,98710.09
2018-07-12T22:30:46.102Z,98708.19
2018-07-12T22:33:13.352Z,98715.09
2018-07-12T22:35:40.621Z,98714.39
2018-07-12T22:38:07.914Z,98710.48
2018-07-12T22:40:35.148Z,98703.25
2018-07-12T22:43:12.697Z,98709.81
2018-07-12T22:45:39.928Z,98706.30
2018-07-12T22:48:07.291Z,98706.84
2018-07-12T22:50:34.494Z,98705.91
2018-07-12T22:53:01.752Z,98703.95
2018-07-12T22:55:28.979Z,98701.77
2018-07-12T22:57:56.235Z,98707.54
2018-07-12T23:00:23.448Z,98712.70
2018-07-12T23:02:50.703Z,98710.83
2018-07-12T23:05:17.969Z,98715.27
2018-07-12T23:07:45.232Z,98715.51
2018-07-12T23:10:12.565Z,98711.53
2018-07-12T23:12:39.824Z,98716.70
2018-07-12T23:15:07.064Z,98713.66
2018-07-12T23:17:34.382Z,98715.13
2018-07-12T23:20:01.599Z,98712.67
2018-07-12T23:22:28.849Z,98708.19
2018-07-12T23:24:56.077Z,98702.27
2018-07-12T23:27:23.294Z,98708.82
2018-07-12T23:29:50.558Z,98709.75
2018-07-12T23:32:17.793Z,98706.63
2018-07-12T23:34:45.058Z,98697.03
2018-07-12T23:37:12.294Z,98697.17
2018-07-12T23:39:39.569Z,98700.48
2018-07-12T23:42:06.821Z,98693.58
2018-07-12T23:44:34.123Z,98697.10
2018-07-12T23:47:01.367Z,98700.38
2018-07-12T23:49:28.649Z,98697.69
2018-07-12T23:51:55.917Z,98699.70
2018-07-12T23:54:23.141Z,98695.90
2018-07-12T23:56:50.387Z,98693.46
2018-07-12T23:59:18.026Z,98696.83
